RYR225 EGSS-EDDF
Flight info
| Callsign | RYR225 |
|---|---|
| Flight time | 0h 57m |
| Altitude | 35000 |
| Route | CLN5S/04 DET L6 DVR UL9 KONAN UL607 SPI T180 NIVNU T847 IMCOM IMCOM1A |
| Aircraft | A320/M-SDE3FGHIRWY/LB1 |
Departure
| Time | 2026-05-04 11:22 |
|---|---|
| Airport | London Stansted Airport (EGSS) |
Arrival
| Time | 2026-05-04 12:19 |
|---|---|
| Airport | Frankfurt Main Airport (EDDF) |
| Time | Latitude | Longitude | Altitude | Speed | Heading |
|---|---|---|---|---|---|
| 2026-05-04 11:05 | 51.89003 | 0.25367 | 352 ft | 0 kts | 224° |
| 2026-05-04 11:12 | 51.89039 | 0.25447 | 357 ft | 0 kts | 314° |
| 2026-05-04 11:14 | 51.89043 | 0.25442 | 353 ft | 4 kts | 314° |
| 2026-05-04 11:14 | 51.89092 | 0.25367 | 350 ft | 11 kts | 319° |
| 2026-05-04 11:16 | 51.88513 | 0.24279 | 352 ft | 30 kts | 224° |
| 2026-05-04 11:16 | 51.88357 | 0.24043 | 347 ft | 31 kts | 222° |
| 2026-05-04 11:16 | 51.88200 | 0.23810 | 346 ft | 31 kts | 223° |
| 2026-05-04 11:17 | 51.88042 | 0.23572 | 352 ft | 30 kts | 223° |
| 2026-05-04 11:17 | 51.87913 | 0.23377 | 338 ft | 23 kts | 223° |
| 2026-05-04 11:19 | 51.87531 | 0.22507 | 338 ft | 18 kts | 228° |
| 2026-05-04 11:19 | 51.87488 | 0.22434 | 338 ft | 6 kts | 216° |
| 2026-05-04 11:19 | 51.87427 | 0.22354 | 339 ft | 17 kts | 227° |
| 2026-05-04 11:19 | 51.87434 | 0.22140 | 336 ft | 25 kts | 309° |
| 2026-05-04 11:20 | 51.87542 | 0.22038 | 334 ft | 15 kts | 26° |
| 2026-05-04 11:20 | 51.87657 | 0.22210 | 338 ft | 47 kts | 43° |
| 2026-05-04 11:20 | 51.88130 | 0.22918 | 335 ft | 135 kts | 43° |
| 2026-05-04 11:20 | 51.88962 | 0.24181 | 604 ft | 181 kts | 43° |
| 2026-05-04 11:22 | 51.89190 | 0.41265 | 4045 ft | 265 kts | 116° |
| 2026-05-04 11:22 | 51.88339 | 0.43891 | 3896 ft | 263 kts | 118° |
| 2026-05-04 11:23 | 51.87424 | 0.46452 | 3750 ft | 262 kts | 121° |
| 2026-05-04 11:23 | 51.86525 | 0.49003 | 3869 ft | 262 kts | 117° |
| 2026-05-04 11:24 | 51.83015 | 0.65584 | 4650 ft | 266 kts | 85° |
| 2026-05-04 11:25 | 51.83138 | 0.68572 | 4821 ft | 266 kts | 86° |
| 2026-05-04 11:25 | 51.83251 | 0.71567 | 4947 ft | 268 kts | 86° |
| 2026-05-04 11:25 | 51.83362 | 0.74519 | 5206 ft | 266 kts | 86° |
| 2026-05-04 11:26 | 51.83593 | 0.80592 | 5940 ft | 274 kts | 86° |
| 2026-05-04 11:27 | 51.81884 | 1.01222 | 7953 ft | 281 kts | 126° |
| 2026-05-04 11:28 | 51.80772 | 1.03848 | 8905 ft | 286 kts | 126° |
| 2026-05-04 11:28 | 51.79637 | 1.06515 | 9816 ft | 291 kts | 126° |
| 2026-05-04 11:28 | 51.78462 | 1.09254 | 10411 ft | 306 kts | 126° |
| 2026-05-04 11:28 | 51.77197 | 1.12184 | 10729 ft | 330 kts | 126° |
| 2026-05-04 11:29 | 51.75838 | 1.15327 | 10976 ft | 353 kts | 126° |
| 2026-05-04 11:29 | 51.74388 | 1.18685 | 11150 ft | 376 kts | 126° |
| 2026-05-04 11:29 | 51.72872 | 1.22196 | 11303 ft | 396 kts | 126° |
| 2026-05-04 11:29 | 51.71279 | 1.25889 | 11792 ft | 405 kts | 126° |
| 2026-05-04 11:31 | 51.59622 | 1.52779 | 15980 ft | 429 kts | 126° |
| 2026-05-04 11:33 | 51.47358 | 1.80692 | 19200 ft | 447 kts | 127° |
| 2026-05-04 11:33 | 51.45556 | 1.84774 | 19556 ft | 449 kts | 127° |
| 2026-05-04 11:33 | 51.43744 | 1.88874 | 19901 ft | 452 kts | 127° |
| 2026-05-04 11:34 | 51.41944 | 1.92940 | 20224 ft | 455 kts | 127° |
| 2026-05-04 11:34 | 51.40109 | 1.97080 | 20542 ft | 457 kts | 127° |
| 2026-05-04 11:34 | 51.38262 | 2.01242 | 20848 ft | 460 kts | 127° |
| 2026-05-04 11:34 | 51.36401 | 2.05429 | 21157 ft | 462 kts | 127° |
| 2026-05-04 11:35 | 51.34531 | 2.09624 | 21458 ft | 465 kts | 127° |
| 2026-05-04 11:35 | 51.32646 | 2.13841 | 21750 ft | 467 kts | 128° |
| 2026-05-04 11:35 | 51.30753 | 2.18069 | 22043 ft | 468 kts | 128° |
| 2026-05-04 11:35 | 51.28855 | 2.22303 | 22382 ft | 469 kts | 128° |
| 2026-05-04 11:36 | 51.26954 | 2.26539 | 22667 ft | 470 kts | 128° |
| 2026-05-04 11:36 | 51.25067 | 2.30726 | 22922 ft | 472 kts | 128° |
| 2026-05-04 11:36 | 51.23144 | 2.34984 | 23166 ft | 474 kts | 128° |
| 2026-05-04 11:36 | 51.21212 | 2.39259 | 23381 ft | 476 kts | 128° |
| 2026-05-04 11:37 | 51.19272 | 2.43552 | 23580 ft | 478 kts | 128° |
| 2026-05-04 11:37 | 51.17330 | 2.47859 | 23759 ft | 479 kts | 128° |
| 2026-05-04 11:37 | 51.15388 | 2.52157 | 24101 ft | 476 kts | 129° |
| 2026-05-04 11:37 | 51.13458 | 2.56415 | 24455 ft | 473 kts | 129° |
| 2026-05-04 11:38 | 51.11534 | 2.60655 | 24812 ft | 471 kts | 128° |
| 2026-05-04 11:38 | 51.09848 | 2.65130 | 25174 ft | 473 kts | 119° |
| 2026-05-04 11:38 | 51.08623 | 2.69911 | 25537 ft | 475 kts | 110° |
| 2026-05-04 11:38 | 51.07704 | 2.74959 | 25910 ft | 474 kts | 109° |
| 2026-05-04 11:39 | 51.06799 | 2.79988 | 26286 ft | 472 kts | 109° |
| 2026-05-04 11:39 | 51.05892 | 2.84989 | 26660 ft | 470 kts | 110° |
| 2026-05-04 11:40 | 51.00487 | 3.14478 | 29051 ft | 460 kts | 111° |
| 2026-05-04 11:41 | 50.99588 | 3.19337 | 29478 ft | 458 kts | 111° |
| 2026-05-04 11:41 | 50.98689 | 3.24179 | 29901 ft | 457 kts | 112° |
| 2026-05-04 11:41 | 50.97789 | 3.29004 | 30288 ft | 455 kts | 112° |
| 2026-05-04 11:41 | 50.96890 | 3.33815 | 30635 ft | 454 kts | 112° |
| 2026-05-04 11:42 | 50.95992 | 3.38602 | 31010 ft | 452 kts | 112° |
| 2026-05-04 11:42 | 50.95098 | 3.43375 | 31380 ft | 451 kts | 112° |
| 2026-05-04 11:42 | 50.94217 | 3.48074 | 31761 ft | 450 kts | 112° |
| 2026-05-04 11:42 | 50.93325 | 3.52821 | 32153 ft | 449 kts | 112° |
| 2026-05-04 11:43 | 50.92428 | 3.57557 | 32552 ft | 448 kts | 113° |
| 2026-05-04 11:43 | 50.91533 | 3.62269 | 32949 ft | 447 kts | 113° |
| 2026-05-04 11:43 | 50.90639 | 3.66976 | 33353 ft | 445 kts | 113° |
| 2026-05-04 11:43 | 50.89743 | 3.71664 | 33782 ft | 444 kts | 113° |
| 2026-05-04 11:44 | 50.88844 | 3.76339 | 34158 ft | 443 kts | 113° |
| 2026-05-04 11:44 | 50.87945 | 3.80995 | 34515 ft | 442 kts | 113° |
| 2026-05-04 11:44 | 50.87056 | 3.85573 | 34863 ft | 440 kts | 113° |
| 2026-05-04 11:44 | 50.86147 | 3.90227 | 34984 ft | 445 kts | 113° |
| 2026-05-04 11:45 | 50.85222 | 3.94940 | 35011 ft | 452 kts | 112° |
| 2026-05-04 11:45 | 50.83332 | 4.04583 | 35007 ft | 465 kts | 112° |
| 2026-05-04 11:46 | 50.81410 | 4.14403 | 35008 ft | 469 kts | 112° |
| 2026-05-04 11:46 | 50.79476 | 4.24246 | 35000 ft | 468 kts | 112° |
| 2026-05-04 11:47 | 50.77546 | 4.33983 | 35006 ft | 467 kts | 113° |
| 2026-05-04 11:47 | 50.75589 | 4.43774 | 35005 ft | 467 kts | 113° |
| 2026-05-04 11:48 | 50.73625 | 4.53540 | 35004 ft | 467 kts | 113° |
| 2026-05-04 11:48 | 50.71659 | 4.63316 | 35009 ft | 467 kts | 112° |
| 2026-05-04 11:49 | 50.69767 | 4.73070 | 35022 ft | 469 kts | 112° |
| 2026-05-04 11:49 | 50.67882 | 4.82931 | 35021 ft | 470 kts | 112° |
| 2026-05-04 11:50 | 50.65967 | 4.92769 | 35021 ft | 469 kts | 112° |
| 2026-05-04 11:50 | 50.63979 | 5.02562 | 35021 ft | 469 kts | 114° |
| 2026-05-04 11:51 | 50.61957 | 5.12256 | 35023 ft | 469 kts | 114° |
| 2026-05-04 11:51 | 50.59918 | 5.22018 | 35019 ft | 470 kts | 114° |
| 2026-05-04 11:52 | 50.57880 | 5.31804 | 35019 ft | 471 kts | 114° |
| 2026-05-04 11:52 | 50.55848 | 5.41585 | 35016 ft | 470 kts | 114° |
| 2026-05-04 11:53 | 50.53800 | 5.51351 | 35015 ft | 470 kts | 114° |
| 2026-05-04 11:53 | 50.51750 | 5.61036 | 34999 ft | 470 kts | 114° |
| 2026-05-04 11:55 | 50.44349 | 6.00458 | 34993 ft | 471 kts | 112° |
| 2026-05-04 11:56 | 50.42457 | 6.10315 | 34991 ft | 473 kts | 112° |
| 2026-05-04 11:56 | 50.40563 | 6.20194 | 34993 ft | 473 kts | 112° |
| 2026-05-04 11:57 | 50.38668 | 6.30065 | 34988 ft | 473 kts | 112° |
| 2026-05-04 11:57 | 50.36795 | 6.39876 | 34987 ft | 475 kts | 109° |
| 2026-05-04 11:58 | 50.35885 | 6.50207 | 34857 ft | 482 kts | 100° |
| 2026-05-04 11:58 | 50.35571 | 6.55475 | 33991 ft | 487 kts | 100° |
| 2026-05-04 11:58 | 50.35274 | 6.60754 | 33005 ft | 486 kts | 100° |
| 2026-05-04 11:58 | 50.34980 | 6.66018 | 32058 ft | 485 kts | 100° |
| 2026-05-04 11:59 | 50.34683 | 6.71268 | 31136 ft | 483 kts | 100° |
| 2026-05-04 11:59 | 50.34381 | 6.76498 | 30244 ft | 481 kts | 100° |
| 2026-05-04 11:59 | 50.34073 | 6.81709 | 29256 ft | 481 kts | 100° |
| 2026-05-04 11:59 | 50.33756 | 6.86857 | 28276 ft | 482 kts | 100° |
| 2026-05-04 12:00 | 50.33417 | 6.92079 | 27316 ft | 483 kts | 100° |
| 2026-05-04 12:00 | 50.33056 | 6.97329 | 26370 ft | 487 kts | 100° |
| 2026-05-04 12:00 | 50.32673 | 7.02612 | 25470 ft | 490 kts | 100° |
| 2026-05-04 12:00 | 50.32268 | 7.07915 | 24603 ft | 492 kts | 100° |
| 2026-05-04 12:01 | 50.31846 | 7.13207 | 23758 ft | 488 kts | 100° |
| 2026-05-04 12:01 | 50.31412 | 7.18442 | 22810 ft | 482 kts | 100° |
| 2026-05-04 12:02 | 50.28834 | 7.48409 | 18022 ft | 448 kts | 98° |
| 2026-05-04 12:03 | 50.28619 | 7.53250 | 17489 ft | 445 kts | 96° |
| 2026-05-04 12:03 | 50.28464 | 7.58064 | 16962 ft | 442 kts | 95° |
| 2026-05-04 12:03 | 50.28340 | 7.62849 | 16448 ft | 439 kts | 95° |
| 2026-05-04 12:03 | 50.28229 | 7.67599 | 15937 ft | 435 kts | 94° |
| 2026-05-04 12:04 | 50.28118 | 7.72305 | 15439 ft | 432 kts | 94° |
| 2026-05-04 12:04 | 50.28004 | 7.76910 | 14956 ft | 429 kts | 95° |
| 2026-05-04 12:04 | 50.27878 | 7.81555 | 14470 ft | 425 kts | 95° |
| 2026-05-04 12:04 | 50.27741 | 7.86150 | 13982 ft | 422 kts | 95° |
| 2026-05-04 12:05 | 50.27595 | 7.90715 | 13467 ft | 418 kts | 95° |
| 2026-05-04 12:05 | 50.27449 | 7.95237 | 12937 ft | 415 kts | 95° |
| 2026-05-04 12:05 | 50.27307 | 7.99733 | 12416 ft | 412 kts | 95° |
| 2026-05-04 12:05 | 50.27163 | 8.04194 | 11904 ft | 410 kts | 95° |
| 2026-05-04 12:06 | 50.27020 | 8.08623 | 11396 ft | 407 kts | 95° |
| 2026-05-04 12:06 | 50.26879 | 8.13017 | 10900 ft | 404 kts | 95° |
| 2026-05-04 12:06 | 50.26741 | 8.17324 | 10419 ft | 401 kts | 95° |
| 2026-05-04 12:06 | 50.26602 | 8.21658 | 9938 ft | 397 kts | 94° |
| 2026-05-04 12:07 | 50.26467 | 8.25835 | 9644 ft | 367 kts | 95° |
| 2026-05-04 12:07 | 50.26346 | 8.29610 | 9603 ft | 331 kts | 95° |
| 2026-05-04 12:07 | 50.26234 | 8.33043 | 9507 ft | 304 kts | 95° |
| 2026-05-04 12:07 | 50.26122 | 8.36297 | 9427 ft | 297 kts | 95° |
| 2026-05-04 12:08 | 50.26008 | 8.39512 | 9204 ft | 295 kts | 95° |
| 2026-05-04 12:08 | 50.25894 | 8.42702 | 8942 ft | 294 kts | 95° |
| 2026-05-04 12:08 | 50.25778 | 8.45901 | 8688 ft | 293 kts | 95° |
| 2026-05-04 12:08 | 50.25664 | 8.49081 | 8433 ft | 292 kts | 95° |
| 2026-05-04 12:09 | 50.25554 | 8.52199 | 8180 ft | 291 kts | 95° |
| 2026-05-04 12:09 | 50.25441 | 8.55349 | 8008 ft | 290 kts | 95° |
| 2026-05-04 12:09 | 50.25327 | 8.58495 | 7999 ft | 290 kts | 95° |
| 2026-05-04 12:09 | 50.25213 | 8.61642 | 8002 ft | 291 kts | 95° |
| 2026-05-04 12:10 | 50.25099 | 8.64792 | 7983 ft | 290 kts | 95° |
| 2026-05-04 12:10 | 50.24985 | 8.67923 | 7609 ft | 288 kts | 95° |
| 2026-05-04 12:10 | 50.24869 | 8.71065 | 7010 ft | 294 kts | 95° |
| 2026-05-04 12:10 | 50.24750 | 8.74255 | 6344 ft | 292 kts | 95° |
| 2026-05-04 12:11 | 50.24632 | 8.77404 | 5653 ft | 288 kts | 94° |
| 2026-05-04 12:11 | 50.24516 | 8.80461 | 5075 ft | 282 kts | 95° |
| 2026-05-04 12:11 | 50.24400 | 8.83506 | 4572 ft | 279 kts | 95° |
| 2026-05-04 12:11 | 50.24285 | 8.86507 | 4108 ft | 275 kts | 95° |
| 2026-05-04 12:12 | 50.24013 | 8.89424 | 3991 ft | 270 kts | 114° |
| 2026-05-04 12:12 | 50.22983 | 8.91828 | 4007 ft | 266 kts | 141° |
| 2026-05-04 12:12 | 50.21399 | 8.93228 | 4008 ft | 261 kts | 161° |
| 2026-05-04 12:12 | 50.19691 | 8.94206 | 4014 ft | 262 kts | 163° |
| 2026-05-04 12:13 | 50.17984 | 8.95131 | 4002 ft | 254 kts | 163° |
| 2026-05-04 12:14 | 50.10552 | 8.86347 | 3953 ft | 198 kts | 250° |
| 2026-05-04 12:15 | 50.10091 | 8.84370 | 3786 ft | 191 kts | 250° |
| 2026-05-04 12:15 | 50.09643 | 8.82463 | 3543 ft | 184 kts | 249° |
| 2026-05-04 12:15 | 50.09210 | 8.80628 | 3294 ft | 178 kts | 248° |
| 2026-05-04 12:15 | 50.08796 | 8.78873 | 3056 ft | 170 kts | 249° |
| 2026-05-04 12:16 | 50.08387 | 8.77138 | 2838 ft | 170 kts | 249° |
| 2026-05-04 12:16 | 50.07985 | 8.75437 | 2619 ft | 169 kts | 249° |
| 2026-05-04 12:16 | 50.07606 | 8.73700 | 2383 ft | 169 kts | 258° |
| 2026-05-04 12:16 | 50.07481 | 8.71955 | 2152 ft | 155 kts | 261° |
| 2026-05-04 12:17 | 50.07275 | 8.70401 | 1985 ft | 142 kts | 252° |
| 2026-05-04 12:17 | 50.06956 | 8.68992 | 1769 ft | 137 kts | 250° |
| 2026-05-04 12:17 | 50.06663 | 8.67609 | 1588 ft | 133 kts | 250° |
| 2026-05-04 12:17 | 50.06339 | 8.66277 | 1433 ft | 131 kts | 246° |
| 2026-05-04 12:18 | 50.05993 | 8.64972 | 1181 ft | 131 kts | 247° |
| 2026-05-04 12:18 | 50.05684 | 8.63641 | 1035 ft | 133 kts | 250° |
| 2026-05-04 12:18 | 50.05366 | 8.62292 | 867 ft | 134 kts | 250° |
| 2026-05-04 12:18 | 50.05053 | 8.60952 | 695 ft | 134 kts | 251° |
| 2026-05-04 12:19 | 50.04727 | 8.59596 | 550 ft | 133 kts | 251° |
| 2026-05-04 12:19 | 50.04410 | 8.58255 | 385 ft | 130 kts | 250° |
| 2026-05-04 12:19 | 50.04126 | 8.57078 | 366 ft | 97 kts | 249° |
| 2026-05-04 12:19 | 50.03953 | 8.56350 | 360 ft | 47 kts | 249° |
| 2026-05-04 12:20 | 50.03876 | 8.55988 | 356 ft | 30 kts | 265° |
| 2026-05-04 12:20 | 50.03903 | 8.55693 | 360 ft | 19 kts | 282° |
| 2026-05-04 12:20 | 50.03954 | 8.55631 | 363 ft | 7 kts | 10° |
| 2026-05-04 12:20 | 50.03981 | 8.55673 | 366 ft | 5 kts | 63° |
| 2026-05-04 12:21 | 50.03999 | 8.55739 | 362 ft | 10 kts | 69° |
| 2026-05-04 12:21 | 50.04035 | 8.55894 | 361 ft | 23 kts | 70° |
| 2026-05-04 12:21 | 50.04101 | 8.56170 | 363 ft | 27 kts | 69° |
| 2026-05-04 12:21 | 50.04163 | 8.56428 | 362 ft | 25 kts | 70° |
| 2026-05-04 12:22 | 50.04224 | 8.56684 | 360 ft | 26 kts | 69° |
| 2026-05-04 12:22 | 50.04289 | 8.56955 | 363 ft | 28 kts | 70° |
| 2026-05-04 12:22 | 50.04359 | 8.57245 | 365 ft | 29 kts | 69° |
| 2026-05-04 12:22 | 50.04428 | 8.57536 | 367 ft | 27 kts | 70° |
| 2026-05-04 12:23 | 50.04494 | 8.57817 | 363 ft | 28 kts | 70° |
| 2026-05-04 12:23 | 50.04550 | 8.58052 | 363 ft | 22 kts | 69° |
| 2026-05-04 12:23 | 50.04604 | 8.58271 | 368 ft | 21 kts | 70° |
| 2026-05-04 12:23 | 50.04655 | 8.58487 | 363 ft | 22 kts | 69° |
| 2026-05-04 12:24 | 50.04705 | 8.58691 | 365 ft | 15 kts | 65° |